createdAt,value
2022-09-28T00:10:16.839Z,98611.51
2022-09-28T00:25:08.934Z,98568.13
2022-09-28T00:40:00.071Z,98541.98
2022-09-28T00:54:51.120Z,98510.82
2022-09-28T01:09:42.183Z,98482.38
2022-09-28T01:24:39.231Z,98468.02
2022-09-28T01:39:34.405Z,98451.35
2022-09-28T01:54:25.703Z,98451.66
2022-09-28T02:09:17.297Z,98448.50
2022-09-28T02:24:08.297Z,98434.39
2022-09-28T02:38:59.246Z,98424.55
2022-09-28T02:54:08.146Z,98426.59
2022-09-28T03:09:15.685Z,98416.49
2022-09-28T03:24:12.129Z,98427.06
2022-09-28T03:39:04.243Z,98425.77
2022-09-28T03:53:55.955Z,98426.01
2022-09-28T04:08:47.582Z,98415.83
2022-09-28T04:23:39.811Z,98436.50
2022-09-28T04:38:51.399Z,98438.44
2022-09-28T04:53:22.837Z,98434.94
2022-09-28T05:08:14.252Z,98434.70
2022-09-28T05:23:05.786Z,98461.84
2022-09-28T05:37:57.540Z,98472.83
2022-09-28T05:52:48.963Z,98480.62
2022-09-28T06:07:41.396Z,98472.12
2022-09-28T06:22:33.416Z,98488.07
2022-09-28T06:37:24.683Z,98502.00
2022-09-28T06:52:17.182Z,98514.72
2022-09-28T07:07:09.308Z,98552.28
2022-09-28T07:22:05.153Z,98573.38
2022-09-28T07:36:52.925Z,98589.38
2022-09-28T07:51:44.847Z,98604.85
2022-09-28T08:06:37.029Z,98625.73
2022-09-28T08:21:44.100Z,98641.81
2022-09-28T08:36:41.672Z,98652.23
2022-09-28T08:51:42.811Z,98677.34
2022-09-28T09:06:45.342Z,98680.09
2022-09-28T09:21:43.804Z,98685.58
2022-09-28T09:36:44.748Z,98696.96
2022-09-28T09:52:00.887Z,98710.23
2022-09-28T10:06:57.234Z,98716.36
2022-09-28T10:21:48.655Z,98710.28
2022-09-28T10:36:51.897Z,98712.63
2022-09-28T10:51:48.212Z,98712.83
2022-09-28T11:06:39.307Z,98703.50
2022-09-28T11:21:30.528Z,98697.81
2022-09-28T11:36:39.513Z,98686.06
2022-09-28T11:51:32.136Z,98682.59
2022-09-28T12:06:26.264Z,98690.22
2022-09-28T12:21:36.518Z,98673.84
2022-09-28T12:36:44.428Z,98677.02
2022-09-28T12:51:47.761Z,98678.56
2022-09-28T13:07:07.163Z,98673.16
2022-09-28T13:22:30.821Z,98656.93
2022-09-28T13:37:28.830Z,98666.03
2022-09-28T13:52:29.954Z,98658.08
2022-09-28T14:22:36.171Z,98677.02
2022-09-28T14:37:52.990Z,98699.91
2022-09-28T14:52:45.517Z,98717.75
2022-09-28T15:08:18.427Z,98711.54
2022-09-28T15:23:02.670Z,98719.05
2022-09-28T15:37:53.796Z,98722.22
2022-09-28T15:52:47.336Z,98722.88
2022-09-28T16:07:41.576Z,98737.70
2022-09-28T16:22:34.297Z,98726.02
2022-09-28T16:37:30.351Z,98741.13
2022-09-28T16:52:42.231Z,98766.94
2022-09-28T17:07:36.946Z,98772.15
2022-09-28T17:22:32.909Z,98774.13
2022-09-28T17:37:18.982Z,98766.52
2022-09-28T17:52:09.937Z,98782.08
2022-09-28T18:07:01.887Z,98795.77
2022-09-28T18:21:53.544Z,98809.79
2022-09-28T18:36:44.853Z,98812.69
2022-09-28T18:51:35.673Z,98832.98
2022-09-28T19:06:27.219Z,98849.86
2022-09-28T19:21:19.018Z,98862.97
2022-09-28T19:36:10.987Z,98862.56
2022-09-28T19:51:02.925Z,98874.92
2022-09-28T20:05:58.863Z,98883.80
2022-09-28T20:20:53.759Z,98903.70
2022-09-28T20:35:44.074Z,98890.34
2022-09-28T20:50:34.637Z,98895.70
2022-09-28T21:05:25.380Z,98903.16
2022-09-28T21:20:15.972Z,98904.63
2022-09-28T21:35:07.297Z,98897.17
2022-09-28T21:50:00.532Z,98883.06
2022-09-28T22:04:52.937Z,98885.69
2022-09-28T22:19:43.346Z,98882.89
2022-09-28T22:34:34.925Z,98882.84
2022-09-28T22:49:25.501Z,98893.71
2022-09-28T23:04:15.274Z,98891.34
2022-09-28T23:19:05.243Z,98895.49
2022-09-28T23:34:01.648Z,98897.67
2022-09-28T23:48:56.067Z,98896.73
